Time;durP1;ratioP1;P1;durP2;ratioP2;P2;SDS_P1;SDS_P2;PMS_P1;PMS_P2;Temp;Humidity;BMP_temperature;BMP_pressure;BME280_temperature;BME280_humidity;BME280_pressure;Samples;Min_cycle;Max_cycle;Signal;HPM_P1;HPM_P2
2022/01/09 00:02:24;;;;;;;7.13;4.47;;;;;;;-146.48;100.00;47167.03;5281513;28;20028;-69
2022/01/09 00:04:55;;;;;;;9.85;5.93;;;;;;;-146.48;100.00;47057.19;5283944;28;20303;-69
2022/01/09 00:07:26;;;;;;;7.40;6.63;;;;;;;-146.48;100.00;46903.41;5285956;28;20012;-69
2022/01/09 00:09:58;;;;;;;9.63;6.70;;;;;;;-146.48;100.00;47037.22;5285329;28;20032;-69
2022/01/09 00:12:29;;;;;;;6.78;4.22;;;;;;;-146.48;100.00;46899.41;5284952;28;20475;-68
2022/01/09 00:15:01;;;;;;;3.22;1.52;;;;;;;-146.48;100.00;46815.53;5284884;28;20098;-68
2022/01/09 00:17:33;;;;;;;5.47;1.38;;;;;;;-146.48;100.00;46649.78;5285412;28;20395;-68
2022/01/09 00:20:07;;;;;;;3.97;1.10;;;;;;;-146.48;100.00;46715.69;5283862;28;20024;-68
2022/01/09 00:22:48;;;;;;;3.30;0.85;;;;;;;-146.48;100.00;46603.88;5284835;28;20032;-68
2022/01/09 00:25:21;;;;;;;4.53;0.90;;;;;;;-146.48;100.00;46697.72;5284240;28;20048;-69
2022/01/09 00:27:52;;;;;;;3.58;1.10;;;;;;;-146.48;100.00;46661.78;5284463;28;20020;-69
2022/01/09 00:30:24;;;;;;;4.22;0.70;;;;;;;-146.48;100.00;46545.97;5285110;28;20050;-69
2022/01/09 00:32:55;;;;;;;7.07;1.23;;;;;;;-146.48;100.00;46661.78;5283665;28;20371;-68
2022/01/09 00:35:27;;;;;;;10.70;1.02;;;;;;;-146.48;100.00;46577.91;5285213;28;20056;-68
2022/01/09 00:37:58;;;;;;;9.48;1.08;;;;;;;-146.48;100.00;46486.06;5284675;28;20024;-68
2022/01/09 00:40:30;;;;;;;16.50;1.55;;;;;;;-146.48;100.00;46480.06;5284241;28;20032;-69
2022/01/09 00:43:01;;;;;;;16.73;1.40;;;;;;;-146.48;100.00;46611.84;5284872;28;20028;-69
2022/01/09 00:45:33;;;;;;;15.80;2.70;;;;;;;-146.48;100.00;46593.88;5284876;28;20027;-69
2022/01/09 00:48:04;;;;;;;23.20;2.45;;;;;;;-146.48;100.00;46484.06;5283454;28;20076;-69
2022/01/09 00:50:36;;;;;;;28.13;3.35;;;;;;;-146.48;100.00;46450.13;5284606;28;20066;-69
2022/01/09 00:53:07;;;;;;;25.77;3.17;;;;;;;-146.48;100.00;46302.34;5284578;28;20039;-69
2022/01/09 00:55:39;;;;;;;27.60;2.78;;;;;;;-146.48;100.00;46264.41;5282601;28;20025;-69
2022/01/09 00:58:10;;;;;;;34.58;3.60;;;;;;;-146.48;100.00;46318.34;5284548;28;20069;-69
2022/01/09 01:00:41;;;;;;;36.80;5.15;;;;;;;-146.48;100.00;46498.03;5283063;28;20028;-69
2022/01/09 01:03:12;;;;;;;35.97;3.38;;;;;;;-146.48;100.00;46422.16;5284646;28;20028;-69
2022/01/09 01:05:44;;;;;;;37.53;3.88;;;;;;;-146.48;100.00;46350.28;5284109;28;20021;-69
2022/01/09 01:08:15;;;;;;;30.48;2.92;;;;;;;-146.48;100.00;46595.88;5283835;28;20029;-69
2022/01/09 01:10:46;;;;;;;34.13;4.18;;;;;;;-146.48;100.00;46516.00;5284000;28;20031;-69
2022/01/09 01:13:18;;;;;;;38.88;4.88;;;;;;;-146.48;100.00;46561.94;5284338;28;20029;-69
2022/01/09 01:15:49;;;;;;;26.67;3.03;;;;;;;-146.48;100.00;46440.13;5282230;28;20478;-69
2022/01/09 01:18:20;;;;;;;26.98;2.63;;;;;;;-146.48;100.00;46390.22;5284099;28;20473;-69
2022/01/09 01:20:51;;;;;;;22.80;2.65;;;;;;;-146.48;100.00;46140.63;5283462;28;20349;-69
2022/01/09 01:23:23;;;;;;;33.17;3.22;;;;;;;-146.48;100.00;46236.47;5283366;28;20353;-69
2022/01/09 01:26:00;;;;;;;27.35;3.55;;;;;;;-146.48;100.00;46230.47;5283725;28;20494;-69
2022/01/09 01:28:31;;;;;;;26.75;4.03;;;;;;;-146.48;100.00;46132.66;5283373;28;20024;-69
2022/01/09 01:31:02;;;;;;;27.63;3.30;;;;;;;-146.48;100.00;46070.75;5283201;28;20024;-68
2022/01/09 01:33:34;;;;;;;31.95;2.72;;;;;;;-146.48;100.00;46066.75;5283892;28;20037;-68
2022/01/09 01:36:05;;;;;;;32.65;3.03;;;;;;;-146.48;100.00;46192.53;5282625;28;20105;-68
2022/01/09 01:38:36;;;;;;;26.90;4.65;;;;;;;-146.48;100.00;46336.31;5283413;28;20356;-69
2022/01/09 01:41:08;;;;;;;31.23;3.80;;;;;;;-146.48;100.00;46058.78;5283585;28;20430;-69
2022/01/09 01:43:39;;;;;;;35.92;4.15;;;;;;;-146.48;100.00;46170.56;5282236;28;20036;-69
2022/01/09 01:46:10;;;;;;;38.85;4.38;;;;;;;-146.48;100.00;46336.31;5283870;28;20032;-67
2022/01/09 01:48:42;;;;;;;46.38;4.60;;;;;;;-146.48;100.00;46302.34;5282999;28;20036;-67
2022/01/09 01:51:13;;;;;;;32.15;2.90;;;;;;;-146.48;100.00;46210.50;5283014;28;20070;-67
2022/01/09 01:53:45;;;;;;;24.30;3.08;;;;;;;-146.48;100.00;46028.81;5283011;28;20025;-67
2022/01/09 01:56:19;;;;;;;30.77;4.00;;;;;;;-146.48;100.00;46064.75;5283564;28;20105;-67
2022/01/09 01:58:51;;;;;;;32.70;4.65;;;;;;;-146.48;100.00;45990.88;5282206;28;20024;-67
2022/01/09 02:01:23;;;;;;;32.65;3.92;;;;;;;-146.48;100.00;46110.69;5283462;28;20074;-67
2022/01/09 02:03:54;;;;;;;33.13;3.72;;;;;;;-146.48;100.00;46198.53;5281956;28;20021;-67
2022/01/09 02:06:25;;;;;;;32.03;3.50;;;;;;;-146.48;100.00;46454.09;5282975;28;20036;-67
2022/01/09 02:08:56;;;;;;;38.90;5.18;;;;;;;-146.48;100.00;46234.47;5282687;28;20050;-67
2022/01/09 02:11:29;;;;;;;45.78;4.82;;;;;;;-146.48;100.00;46402.19;5282079;28;20056;-67
2022/01/09 02:14:00;;;;;;;50.50;6.75;;;;;;;-146.48;100.00;46438.13;5282336;28;20029;-67
2022/01/09 02:16:35;;;;;;;42.97;6.72;;;;;;;-146.48;100.00;46512.00;5283088;28;20093;-67
2022/01/09 02:19:08;;;;;;;41.13;5.40;;;;;;;-146.48;100.00;46384.22;5281187;28;20036;-67
2022/01/09 02:21:40;;;;;;;49.95;4.43;;;;;;;-146.48;100.00;46382.22;5282102;28;20032;-67
2022/01/09 02:24:13;;;;;;;43.33;5.03;;;;;;;-146.48;100.00;46376.25;5283206;28;20155;-67
2022/01/09 02:26:44;;;;;;;47.45;5.22;;;;;;;-146.48;100.00;46490.06;5280369;28;20075;-67
2022/01/09 02:29:16;;;;;;;41.42;5.20;;;;;;;-146.48;100.00;46402.19;5282545;28;20028;-68
2022/01/09 02:31:47;;;;;;;45.25;6.05;;;;;;;-146.48;100.00;46272.41;5281562;28;20028;-67
2022/01/09 02:34:19;;;;;;;35.70;5.05;;;;;;;-146.48;100.00;46216.50;5282434;28;20070;-67
2022/01/09 02:36:50;;;;;;;43.08;4.45;;;;;;;-146.48;100.00;46314.34;5281785;28;20367;-67
2022/01/09 02:39:21;;;;;;;37.67;4.07;;;;;;;-146.48;100.00;46196.53;5281716;28;20489;-67
2022/01/09 02:41:52;;;;;;;41.50;4.47;;;;;;;-146.48;100.00;46224.50;5281870;28;20533;-67
2022/01/09 02:44:24;;;;;;;33.97;4.97;;;;;;;-146.48;100.00;46062.75;5282620;28;20031;-67
2022/01/09 02:47:02;;;;;;;35.78;4.43;;;;;;;-146.48;100.00;46138.63;5281198;28;20029;-67
2022/01/09 02:49:33;;;;;;;38.55;3.65;;;;;;;-146.48;100.00;46146.63;5282106;28;20053;-67
2022/01/09 02:52:11;;;;;;;43.13;6.55;;;;;;;-146.48;100.00;45942.97;5281734;28;20020;-67
2022/01/09 02:57:32;;;;;;;33.88;3.63;;;;;;;-146.48;100.00;46090.72;5282538;28;20029;-67
2022/01/09 03:00:10;;;;;;;48.42;5.15;;;;;;;-146.48;100.00;45819.19;5280765;28;20021;-67
2022/01/09 03:02:42;;;;;;;27.40;3.95;;;;;;;-146.48;100.00;45601.59;5281310;28;20383;-67
2022/01/09 03:05:14;;;;;;;25.23;2.85;;;;;;;-146.48;100.00;45671.44;5281704;28;20024;-67
2022/01/09 03:07:46;;;;;;;32.70;3.83;;;;;;;-146.48;100.00;45691.41;5280681;28;20033;-68
2022/01/09 03:10:18;;;;;;;35.83;3.53;;;;;;;-146.48;100.00;45559.66;5282114;28;20104;-67
2022/01/09 03:12:51;;;;;;;27.67;3.05;;;;;;;-146.48;100.00;45521.72;5281472;28;20074;-67
2022/01/09 03:15:24;;;;;;;28.02;2.85;;;;;;;-146.48;100.00;45639.50;5280992;28;20542;-68
2022/01/09 03:17:55;;;;;;;25.73;2.65;;;;;;;-146.48;100.00;45533.72;5281502;28;20020;-67
2022/01/09 03:20:27;;;;;;;28.45;3.15;;;;;;;-146.48;100.00;45503.75;5281923;28;20107;-67
2022/01/09 03:22:59;;;;;;;27.30;2.85;;;;;;;-146.48;100.00;45463.84;5280194;28;20035;-67
2022/01/09 03:25:30;;;;;;;30.80;2.80;;;;;;;-146.48;100.00;45316.13;5281837;28;20390;-67
2022/01/09 03:28:04;;;;;;;31.95;2.60;;;;;;;-146.48;100.00;45320.09;5280287;28;20043;-68
2022/01/09 03:30:35;;;;;;;20.42;2.25;;;;;;;-146.48;100.00;45451.84;5282018;28;20464;-67
2022/01/09 03:33:06;;;;;;;20.90;2.42;;;;;;;-146.48;100.00;45328.09;5281215;28;20029;-68
2022/01/09 03:35:37;;;;;;;27.77;2.78;;;;;;;-146.48;100.00;45296.16;5280403;28;20104;-68
2022/01/09 03:38:09;;;;;;;21.38;3.33;;;;;;;-146.48;100.00;45296.16;5281335;28;20029;-67
2022/01/09 03:40:40;;;;;;;17.27;1.40;;;;;;;-146.48;100.00;45451.84;5281255;28;20066;-67
2022/01/09 03:43:11;;;;;;;31.27;1.98;;;;;;;-146.48;100.00;45517.75;5280532;28;20036;-68
2022/01/09 03:45:43;;;;;;;19.20;2.40;;;;;;;-146.48;100.00;45370.00;5281114;28;20392;-67
2022/01/09 03:48:14;;;;;;;19.08;1.60;;;;;;;-146.48;100.00;45376.00;5281326;28;20396;-67
2022/01/09 03:50:50;;;;;;;20.00;1.98;;;;;;;-146.48;100.00;45495.78;5279969;28;20040;-67
2022/01/09 03:53:22;;;;;;;24.63;2.28;;;;;;;-146.48;100.00;45308.13;5281677;28;20034;-67
2022/01/09 03:55:55;;;;;;;22.95;2.33;;;;;;;-146.48;100.00;45429.91;5281034;28;20456;-67
2022/01/09 03:58:26;;;;;;;18.65;1.58;;;;;;;-146.48;100.00;45527.72;5280856;28;20021;-67
2022/01/09 04:00:57;;;;;;;24.77;2.55;;;;;;;-146.48;100.00;45431.91;5280840;28;20055;-67
2022/01/09 04:03:28;;;;;;;19.70;2.60;;;;;;;-146.48;100.00;45395.97;5280477;28;20097;-69
2022/01/09 04:06:01;;;;;;;17.85;1.65;;;;;;;-146.48;100.00;45376.00;5280997;28;20035;-67
2022/01/09 04:08:34;;;;;;;21.38;2.38;;;;;;;-146.48;100.00;45455.84;5281416;28;20468;-67
2022/01/09 04:11:06;;;;;;;18.02;1.35;;;;;;;-146.48;100.00;45278.19;5280013;28;20029;-67
2022/01/09 04:13:38;;;;;;;13.30;1.40;;;;;;;-146.48;100.00;45310.13;5280580;28;20036;-67
2022/01/09 04:16:09;;;;;;;18.60;2.35;;;;;;;-146.48;100.00;45176.38;5281445;28;20029;-67
2022/01/09 04:18:41;;;;;;;25.60;1.95;;;;;;;-146.48;100.00;45082.56;5279993;28;20020;-67
2022/01/09 04:21:12;;;;;;;20.90;1.73;;;;;;;-146.48;100.00;45072.59;5281128;28;20032;-66
2022/01/09 04:23:43;;;;;;;24.27;1.58;;;;;;;-146.48;100.00;45070.59;5280583;28;20028;-67
2022/01/09 04:26:16;;;;;;;20.00;1.58;;;;;;;-146.48;100.00;45056.63;5280334;28;20043;-67
2022/01/09 04:28:48;;;;;;;13.85;1.50;;;;;;;-146.48;100.00;45000.72;5280856;28;20479;-67
2022/01/09 04:31:19;;;;;;;22.15;2.53;;;;;;;-146.48;100.00;44972.78;5280290;28;20039;-67
2022/01/09 04:33:50;;;;;;;17.95;1.20;;;;;;;-146.48;100.00;44924.88;5280479;28;20383;-67
2022/01/09 04:36:22;;;;;;;16.45;1.88;;;;;;;-146.48;100.00;44811.13;5280874;28;20024;-67
2022/01/09 04:38:55;;;;;;;26.17;2.05;;;;;;;-146.48;100.00;44847.03;5279519;28;20395;-67
2022/01/09 04:41:26;;;;;;;17.10;1.88;;;;;;;-146.48;100.00;44835.06;5280964;28;20052;-66
2022/01/09 04:43:57;;;;;;;20.92;1.73;;;;;;;-146.48;100.00;44873.00;5280524;28;20115;-66
2022/01/09 04:46:39;;;;;;;20.50;1.52;;;;;;;-146.48;100.00;44827.06;5280615;28;20078;-66
2022/01/09 04:49:10;;;;;;;13.65;1.75;;;;;;;-146.48;100.00;44867.00;5280676;28;20068;-67
2022/01/09 04:51:41;;;;;;;23.88;2.17;;;;;;;-146.48;100.00;44783.16;5283107;28;20055;-67
2022/01/09 04:54:13;;;;;;;12.73;1.80;;;;;;;-146.48;100.00;44849.03;5283854;28;20047;-67
2022/01/09 04:56:44;;;;;;;25.42;1.40;;;;;;;-146.48;100.00;44843.03;5283991;28;20060;-69
2022/01/09 04:59:15;;;;;;;11.68;1.45;;;;;;;-146.48;100.00;44777.19;5284528;28;20112;-66
2022/01/09 05:01:47;;;;;;;16.13;1.38;;;;;;;-146.48;100.00;44613.53;5283089;28;20119;-67
2022/01/09 05:04:18;;;;;;;15.75;1.30;;;;;;;-146.48;100.00;44625.50;5284698;28;20395;-67
2022/01/09 05:06:49;;;;;;;22.73;3.00;;;;;;;-146.48;100.00;44573.59;5283131;28;20021;-67
2022/01/09 05:09:21;;;;;;;16.83;1.60;;;;;;;-146.48;100.00;44491.78;5283919;28;20032;-67
2022/01/09 05:11:52;;;;;;;12.80;0.95;;;;;;;-146.48;100.00;44503.75;5283712;28;20391;-69
2022/01/09 05:14:23;;;;;;;11.55;1.05;;;;;;;-146.48;100.00;44392.00;5283692;28;20025;-69
2022/01/09 05:16:54;;;;;;;10.85;0.70;;;;;;;-146.48;100.00;44310.16;5283793;28;20162;-69
2022/01/09 05:19:31;;;;;;;18.83;1.15;;;;;;;-146.48;100.00;44138.53;5284102;28;20040;-69
2022/01/09 05:22:03;;;;;;;17.25;1.20;;;;;;;-146.48;100.00;44160.50;5282733;28;20032;-67
2022/01/09 05:24:35;;;;;;;16.60;1.35;;;;;;;-146.48;100.00;44236.31;5284048;28;20032;-66
2022/01/09 05:27:06;;;;;;;16.30;1.80;;;;;;;-146.48;100.00;44290.22;5284000;28;20488;-67
2022/01/09 05:29:37;;;;;;;24.23;1.60;;;;;;;-146.48;100.00;44425.91;5282805;28;20029;-67
2022/01/09 05:32:09;;;;;;;15.70;1.58;;;;;;;-146.48;100.00;44557.63;5283915;28;20017;-67
2022/01/09 05:34:40;;;;;;;19.95;1.90;;;;;;;-146.48;100.00;44859.00;5282925;28;20056;-67
2022/01/09 05:37:12;;;;;;;21.73;2.30;;;;;;;-146.48;100.00;44982.75;5284011;28;20104;-67
2022/01/09 05:39:43;;;;;;;15.10;1.40;;;;;;;-146.48;100.00;45160.41;5283398;28;20035;-67
2022/01/09 05:42:15;;;;;;;19.95;1.27;;;;;;;-146.48;100.00;45354.03;5282853;28;20097;-67
2022/01/09 05:44:47;;;;;;;19.90;1.95;;;;;;;-146.48;100.00;45437.88;5283129;28;20024;-66
2022/01/09 05:47:18;;;;;;;15.95;2.17;;;;;;;-146.48;100.00;45561.66;5283491;28;20016;-67
2022/01/09 05:49:49;;;;;;;21.83;1.38;;;;;;;-146.48;100.00;45489.78;5282070;28;20051;-67
2022/01/09 05:52:21;;;;;;;16.75;1.42;;;;;;;-146.48;100.00;45455.84;5283649;28;20086;-69
2022/01/09 05:54:52;;;;;;;27.27;2.28;;;;;;;-146.48;100.00;45360.03;5283022;28;20107;-68
2022/01/09 05:57:23;;;;;;;19.90;2.58;;;;;;;-146.48;100.00;45234.28;5282826;28;20032;-66
2022/01/09 05:59:55;;;;;;;19.50;1.65;;;;;;;-146.48;100.00;45348.06;5282735;28;20056;-67
2022/01/09 06:02:26;;;;;;;20.33;1.77;;;;;;;-146.48;100.00;45302.16;5283368;28;20035;-67
2022/01/09 06:04:57;;;;;;;19.10;2.03;;;;;;;-146.48;100.00;45250.25;5282072;28;20048;-67
2022/01/09 06:07:28;;;;;;;18.35;2.08;;;;;;;-146.48;100.00;45204.34;5283256;28;20076;-66
2022/01/09 06:10:00;;;;;;;13.80;1.25;;;;;;;-146.48;100.00;45158.41;5281619;28;20036;-69
2022/01/09 06:12:31;;;;;;;17.65;1.50;;;;;;;-146.48;100.00;45134.47;5283158;28;20383;-70
2022/01/09 06:15:03;;;;;;;21.90;1.52;;;;;;;-146.48;100.00;45156.44;5282434;28;20436;-67
2022/01/09 06:17:41;;;;;;;17.80;3.00;;;;;;;-146.48;100.00;45162.41;5282025;28;20537;-67
2022/01/09 06:20:15;;;;;;;14.55;1.52;;;;;;;-146.48;100.00;45140.47;5282904;28;20032;-66
2022/01/09 06:22:46;;;;;;;19.45;2.92;;;;;;;-146.48;100.00;45030.66;5281947;28;20063;-68
2022/01/09 06:25:17;;;;;;;16.85;1.15;;;;;;;-146.48;100.00;45014.69;5281987;28;20056;-68
2022/01/09 06:27:49;;;;;;;18.75;1.73;;;;;;;-146.48;100.00;45016.69;5282367;28;20467;-69
2022/01/09 06:30:20;;;;;;;17.00;1.80;;;;;;;-146.48;100.00;45050.63;5282775;28;20024;-69
2022/01/09 06:32:51;;;;;;;19.88;1.60;;;;;;;-146.48;100.00;44869.00;5281137;28;20450;-69
2022/01/09 06:35:23;;;;;;;17.95;1.73;;;;;;;-146.48;100.00;44865.00;5282149;28;20036;-69
2022/01/09 06:37:54;;;;;;;20.00;1.33;;;;;;;-146.48;100.00;44801.13;5281277;28;20020;-68
2022/01/09 06:40:25;;;;;;;13.27;1.67;;;;;;;-146.48;100.00;44533.69;5282556;28;20022;-68
2022/01/09 06:42:57;;;;;;;18.33;1.80;;;;;;;-146.48;100.00;44725.28;5282065;28;20043;-68
2022/01/09 06:45:28;;;;;;;12.68;0.90;;;;;;;-146.48;100.00;44541.66;5281656;28;20025;-69
2022/01/09 06:47:59;;;;;;;11.88;1.20;;;;;;;-146.48;100.00;44505.75;5281549;28;20036;-68
2022/01/09 06:50:31;;;;;;;11.85;1.05;;;;;;;-146.48;100.00;44453.84;5282589;28;20378;-67
2022/01/09 06:53:02;;;;;;;14.93;1.30;;;;;;;-146.48;100.00;44435.91;5281077;28;20028;-68
2022/01/09 06:55:33;;;;;;;13.88;1.55;;;;;;;-146.48;100.00;44551.66;5282456;28;20029;-67
2022/01/09 06:58:05;;;;;;;17.30;1.38;;;;;;;-146.48;100.00;44551.66;5281575;28;20052;-68
2022/01/09 07:00:36;;;;;;;17.23;1.77;;;;;;;-146.48;100.00;44429.91;5281124;28;20020;-68
2022/01/09 07:03:07;;;;;;;15.38;1.67;;;;;;;-146.48;100.00;44392.00;5282019;28;20056;-68
2022/01/09 07:05:39;;;;;;;14.00;1.90;;;;;;;-146.48;100.00;44340.09;5281364;28;20047;-69
2022/01/09 07:08:10;;;;;;;10.05;1.35;;;;;;;-146.48;100.00;44413.94;5281159;28;20356;-68
2022/01/09 07:10:41;;;;;;;10.32;1.33;;;;;;;-146.48;100.00;44288.22;5281331;28;20086;-68
2022/01/09 07:13:13;;;;;;;13.10;1.27;;;;;;;-146.48;100.00;44238.31;5280595;28;20024;-68
2022/01/09 07:15:44;;;;;;;11.88;1.23;;;;;;;-146.48;100.00;44258.28;5281669;28;20509;-68
2022/01/09 07:18:16;;;;;;;15.05;1.05;;;;;;;-146.48;100.00;44334.13;5282023;28;20076;-68
2022/01/09 07:20:47;;;;;;;14.70;1.67;;;;;;;-146.48;100.00;44531.69;5280593;28;20468;-68
2022/01/09 07:23:18;;;;;;;17.02;1.45;;;;;;;-146.48;100.00;44487.78;5281877;28;20035;-68
2022/01/09 07:25:50;;;;;;;12.73;1.42;;;;;;;-146.48;100.00;44437.88;5281468;28;20128;-68
2022/01/09 07:28:21;;;;;;;22.23;1.90;;;;;;;-146.48;100.00;44238.31;5281079;28;20039;-68
2022/01/09 07:30:52;;;;;;;18.10;1.25;;;;;;;-146.48;100.00;44198.41;5281084;28;20055;-69
2022/01/09 07:33:24;;;;;;;13.45;1.65;;;;;;;-146.48;100.00;44334.13;5281660;28;20024;-68
2022/01/09 07:35:56;;;;;;;9.85;0.70;;;;;;;-146.48;100.00;44465.84;5280532;28;20052;-68
2022/01/09 07:38:27;;;;;;;11.55;1.77;;;;;;;-146.48;100.00;44525.69;5281732;28;20047;-69
2022/01/09 07:40:58;;;;;;;14.63;1.25;;;;;;;-146.48;100.00;44487.78;5281075;28;20037;-68
2022/01/09 07:43:29;;;;;;;16.25;1.77;;;;;;;-146.48;100.00;44543.66;5280949;28;20032;-67
2022/01/09 07:46:01;;;;;;;18.75;1.05;;;;;;;-146.48;100.00;44495.75;5280794;28;20024;-67
2022/01/09 07:48:32;;;;;;;18.80;0.95;;;;;;;-146.48;100.00;44599.56;5280701;28;20075;-67
2022/01/09 07:51:03;;;;;;;14.38;1.10;;;;;;;-146.48;100.00;44633.47;5281059;28;20032;-67
2022/01/09 07:53:35;;;;;;;11.43;1.27;;;;;;;-146.48;100.00;44613.53;5281517;28;20070;-67
2022/01/09 07:56:06;;;;;;;10.32;0.93;;;;;;;-146.48;100.00;44693.34;5279439;28;20139;-68
2022/01/09 07:58:37;;;;;;;10.10;0.70;;;;;;;-146.48;100.00;44595.56;5280810;28;20538;-68
2022/01/09 08:01:08;;;;;;;7.93;0.80;;;;;;;-146.48;100.00;44417.94;5281578;28;20033;-68
2022/01/09 08:03:40;;;;;;;8.02;0.80;;;;;;;-146.48;100.00;44346.09;5280173;28;20028;-68
2022/01/09 08:06:11;;;;;;;8.52;0.88;;;;;;;-146.48;100.00;44274.25;5281464;28;20025;-67
2022/01/09 08:08:42;;;;;;;9.27;0.98;;;;;;;-146.48;100.00;44138.53;5280792;28;20057;-67
2022/01/09 08:11:15;;;;;;;8.32;0.75;;;;;;;-146.48;100.00;44280.22;5280439;28;20452;-67
2022/01/09 08:13:46;;;;;;;7.05;0.70;;;;;;;-146.48;100.00;44222.34;5280989;28;20028;-68
2022/01/09 08:16:18;;;;;;;9.45;0.60;;;;;;;-146.48;100.00;44274.25;5281278;28;20024;-68
2022/01/09 08:18:49;;;;;;;11.93;1.10;;;;;;;-146.48;100.00;44350.06;5280319;28;20029;-68
2022/01/09 08:21:20;;;;;;;7.88;0.73;;;;;;;-146.48;100.00;44419.94;5281255;28;20028;-68
2022/01/09 08:23:52;;;;;;;8.30;0.90;;;;;;;-146.48;100.00;44477.81;5279742;28;20020;-68
2022/01/09 08:26:23;;;;;;;7.45;0.70;;;;;;;-146.48;100.00;44284.22;5283878;28;20020;-68
2022/01/09 08:28:54;;;;;;;8.60;0.65;;;;;;;-146.48;100.00;44318.16;5284612;28;20028;-68
2022/01/09 08:31:26;;;;;;;12.25;1.05;;;;;;;-146.48;100.00;44415.94;5284394;28;20031;-68
2022/01/09 08:33:57;;;;;;;15.80;1.23;;;;;;;-146.48;100.00;44477.81;5284502;28;20031;-68
2022/01/09 08:36:28;;;;;;;7.85;0.80;;;;;;;-146.48;100.00;44559.63;5285269;28;20086;-68
2022/01/09 08:39:00;;;;;;;11.73;1.00;;;;;;;-146.48;100.00;44709.31;5283713;28;20035;-68
2022/01/09 08:41:32;;;;;;;9.10;0.80;;;;;;;-146.48;100.00;44773.19;5284674;28;20101;-69
2022/01/09 08:44:05;;;;;;;14.25;0.82;;;;;;;-146.48;100.00;44793.16;5284379;28;20037;-69
2022/01/09 08:46:38;;;;;;;13.13;1.05;;;;;;;-146.48;100.00;45006.72;5283958;28;20438;-69
2022/01/09 08:49:09;;;;;;;8.15;1.00;;;;;;;-146.48;100.00;45242.25;5284535;28;20064;-69
2022/01/09 08:51:40;;;;;;;11.48;1.25;;;;;;;-146.48;100.00;45298.16;5283322;28;20460;-69
2022/01/09 08:54:11;;;;;;;11.02;1.13;;;;;;;-146.48;100.00;45118.50;5284525;28;20032;-69
2022/01/09 08:56:43;;;;;;;12.68;1.15;;;;;;;-146.48;100.00;44677.38;5283720;28;20094;-69
2022/01/09 08:59:14;;;;;;;11.95;1.40;;;;;;;-146.48;100.00;44793.16;5283849;28;20025;-69
2022/01/09 09:01:46;;;;;;;7.70;0.80;;;;;;;-146.48;100.00;45068.59;5284063;28;20040;-69
2022/01/09 09:04:18;;;;;;;16.63;0.82;;;;;;;-146.48;100.00;45068.59;5284477;28;20025;-69
2022/01/09 09:06:51;;;;;;;13.02;0.95;;;;;;;-146.48;100.00;45130.47;5283123;28;20394;-69
2022/01/09 09:09:22;;;;;;;13.65;1.52;;;;;;;-146.48;100.00;45142.44;5284178;28;20103;-69
2022/01/09 09:11:53;;;;;;;8.95;1.10;;;;;;;-146.48;100.00;45262.22;5283960;28;20107;-68
2022/01/09 09:14:25;;;;;;;17.58;2.17;;;;;;;-146.48;100.00;45262.22;5283629;28;20043;-70
2022/01/09 09:16:56;;;;;;;17.00;1.35;;;;;;;-146.48;100.00;45230.28;5283701;28;20032;-69
2022/01/09 09:19:27;;;;;;;14.48;1.40;;;;;;;-146.48;100.00;45040.66;5284082;28;20480;-69
2022/01/09 09:21:59;;;;;;;15.48;1.63;;;;;;;-146.48;100.00;45238.25;5282712;28;20428;-68
2022/01/09 09:24:30;;;;;;;18.65;2.40;;;;;;;-146.48;100.00;44867.00;5284407;28;20033;-68
2022/01/09 09:27:01;;;;;;;13.07;1.13;;;;;;;-146.48;100.00;44637.47;5282605;28;20023;-68
2022/01/09 09:29:33;;;;;;;16.50;1.23;;;;;;;-146.48;100.00;44517.72;5284070;28;20036;-69
2022/01/09 09:32:05;;;;;;;11.63;1.90;;;;;;;-146.48;100.00;44364.03;5283186;28;20024;-69
2022/01/09 09:34:38;;;;;;;14.75;1.17;;;;;;;-146.48;100.00;44511.72;5282845;28;20029;-69
2022/01/09 09:37:09;;;;;;;13.48;0.93;;;;;;;-146.48;100.00;44465.84;5283378;28;20021;-69
2022/01/09 09:39:41;;;;;;;11.40;1.02;;;;;;;-146.48;100.00;44378.03;5281201;28;20047;-69
2022/01/09 09:42:12;;;;;;;16.27;1.08;;;;;;;-146.48;100.00;44306.16;5281277;28;20098;-69
2022/01/09 09:44:43;;;;;;;12.48;1.02;;;;;;;-146.48;100.00;44278.22;5281721;28;20021;-69
2022/01/09 09:47:20;;;;;;;9.82;0.82;;;;;;;-146.48;100.00;44222.34;5282314;28;20016;-69
2022/01/09 09:49:51;;;;;;;10.27;1.05;;;;;;;-146.48;100.00;43927.00;5280702;28;20048;-69
2022/01/09 09:52:22;;;;;;;13.13;0.90;;;;;;;-146.48;100.00;43685.56;5281901;28;20490;-69
2022/01/09 09:54:54;;;;;;;11.32;1.60;;;;;;;-146.48;100.00;43472.06;5281007;28;20039;-69
2022/01/09 09:57:27;;;;;;;10.95;0.95;;;;;;;-146.48;100.00;43438.16;5282119;28;20119;-69
2022/01/09 10:00:05;;;;;;;9.15;0.70;;;;;;;-146.48;100.00;43687.56;5281565;28;20024;-69
2022/01/09 10:02:46;;;;;;;12.10;1.17;;;;;;;-146.48;100.00;43851.19;5281288;28;20032;-69
2022/01/09 10:05:20;;;;;;;11.80;1.85;;;;;;;-146.48;100.00;43889.09;5281641;28;20036;-69
2022/01/09 10:07:53;;;;;;;13.82;0.90;;;;;;;-146.48;100.00;44050.72;5281494;28;20452;-69
2022/01/09 10:10:32;;;;;;;17.73;1.50;;;;;;;-146.48;100.00;44122.56;5281425;28;20079;-69
2022/01/09 10:13:11;;;;;;;15.63;1.33;;;;;;;-146.48;100.00;44531.69;5281417;28;20082;-69
2022/01/09 10:15:59;;;;;;;15.63;1.15;;;;;;;-146.48;100.00;44555.63;5281282;28;20051;-69
2022/01/09 10:18:48;;;;;;;17.65;1.38;;;;;;;-146.48;100.00;44811.13;5281391;28;20108;-69
2022/01/09 10:21:23;;;;;;;18.70;2.33;;;;;;;-146.48;100.00;44783.16;5281882;28;20036;-69
2022/01/09 10:24:11;;;;;;;14.35;1.33;;;;;;;-146.48;100.00;44829.06;5280466;28;20572;-69
2022/01/09 10:26:49;;;;;;;14.90;1.52;;;;;;;-146.48;100.00;44855.03;5281092;28;20063;-69
2022/01/09 10:29:20;;;;;;;19.65;1.65;;;;;;;-146.48;100.00;44761.22;5281816;28;20062;-69
2022/01/09 10:31:51;;;;;;;12.93;1.83;;;;;;;-146.48;100.00;44691.34;5279742;28;20024;-70
2022/01/09 10:34:23;;;;;;;19.35;1.98;;;;;;;-146.48;100.00;44697.34;5281607;28;20044;-69
2022/01/09 10:36:54;;;;;;;15.10;1.20;;;;;;;-146.48;100.00;44878.97;5280777;28;20044;-68
2022/01/09 10:39:25;;;;;;;19.27;2.25;;;;;;;-146.48;100.00;44743.25;5280594;28;20029;-69
2022/01/09 10:42:03;;;;;;;14.02;1.50;;;;;;;-146.48;100.00;44541.66;5280688;28;20106;-69
2022/01/09 10:44:37;;;;;;;19.65;2.63;;;;;;;-146.48;100.00;44425.91;5280256;28;20112;-69
2022/01/09 10:47:14;;;;;;;14.68;1.85;;;;;;;-146.48;100.00;44517.72;5282170;28;20040;-70
2022/01/09 10:49:49;;;;;;;9.10;1.75;;;;;;;-146.48;100.00;44192.41;5280945;28;20059;-70
2022/01/09 10:52:26;;;;;;;17.67;1.92;;;;;;;-146.48;100.00;44002.84;5281814;28;20430;-70
2022/01/09 10:55:04;;;;;;;12.63;1.02;;;;;;;-146.48;100.00;43807.28;5281371;28;20045;-70
2022/01/09 10:57:39;;;;;;;19.73;1.67;;;;;;;-146.48;100.00;43839.22;5281344;28;20044;-70
2022/01/09 11:00:15;;;;;;;13.40;2.05;;;;;;;-146.48;100.00;43857.16;5281400;28;20017;-70
2022/01/09 11:02:46;;;;;;;14.93;1.58;;;;;;;-146.48;100.00;44032.78;5281255;28;20091;-69
2022/01/09 11:05:17;;;;;;;15.07;1.77;;;;;;;-146.48;100.00;43701.53;5281487;28;20024;-70
2022/01/09 11:07:50;;;;;;;12.85;1.80;;;;;;;-146.48;100.00;43623.72;5281410;28;20031;-69
2022/01/09 11:10:22;;;;;;;11.93;1.75;;;;;;;-146.48;100.00;43513.97;5282057;28;20035;-69
2022/01/09 11:12:58;;;;;;;15.90;1.02;;;;;;;-146.48;100.00;42917.44;5280565;28;20052;-69
2022/01/09 11:15:35;;;;;;;16.58;2.20;;;;;;;-146.48;100.00;42602.22;5281959;28;20040;-69
2022/01/09 11:18:08;;;;;;;11.77;1.00;;;;;;;-146.48;100.00;42241.19;5280982;28;20032;-69
2022/01/09 11:20:40;;;;;;;17.65;1.10;;;;;;;-146.48;100.00;42149.44;5280579;28;20028;-68
2022/01/09 11:23:12;;;;;;;13.52;1.17;;;;;;;-146.48;100.00;42103.56;5281599;28;20044;-70
2022/01/09 11:25:45;;;;;;;14.75;1.42;;;;;;;-146.48;100.00;41848.25;5280755;28;20112;-68
2022/01/09 11:28:25;;;;;;;9.73;0.80;;;;;;;-146.48;100.00;41678.75;5280107;28;20486;-68